createdAt,value
2023-01-03T00:02:00.720Z,4.04
2023-01-03T00:04:27.048Z,3.97
2023-01-03T00:06:53.331Z,3.92
2023-01-03T00:09:19.666Z,3.78
2023-01-03T00:11:46.025Z,3.64
2023-01-03T00:14:12.375Z,3.57
2023-01-03T00:16:38.815Z,3.60
2023-01-03T00:19:05.129Z,3.68
2023-01-03T00:21:31.478Z,3.31
2023-01-03T00:23:57.822Z,3.22
2023-01-03T00:26:24.138Z,3.26
2023-01-03T00:28:50.508Z,3.53
2023-01-03T00:31:16.878Z,3.90
2023-01-03T00:33:43.179Z,4.20
2023-01-03T00:36:09.549Z,4.41
2023-01-03T00:38:35.892Z,4.48
2023-01-03T00:41:02.217Z,4.19
2023-01-03T00:43:28.602Z,3.95
2023-01-03T00:45:54.989Z,3.69
2023-01-03T00:48:21.311Z,3.55
2023-01-03T00:50:47.638Z,3.69
2023-01-03T00:53:13.980Z,3.70
2023-01-03T00:55:40.302Z,3.62
2023-01-03T00:58:08.604Z,3.78
2023-01-03T01:00:33.059Z,3.85
2023-01-03T01:02:59.964Z,3.75
2023-01-03T01:05:26.087Z,3.78
2023-01-03T01:07:52.467Z,3.72
2023-01-03T01:10:18.823Z,3.77
2023-01-03T01:12:45.199Z,3.57
2023-01-03T01:15:11.526Z,3.35
2023-01-03T01:17:37.879Z,3.26
2023-01-03T01:20:04.243Z,3.37
2023-01-03T01:22:30.624Z,3.36
2023-01-03T01:24:56.985Z,3.33
2023-01-03T01:27:23.311Z,3.34
2023-01-03T01:29:49.685Z,3.14
2023-01-03T01:32:16.061Z,2.84
2023-01-03T01:34:42.392Z,2.62
2023-01-03T01:37:08.778Z,2.53
2023-01-03T01:39:35.136Z,2.62
2023-01-03T01:42:01.517Z,2.61
2023-01-03T01:44:27.843Z,2.80
2023-01-03T01:46:54.183Z,3.01
2023-01-03T01:49:20.498Z,2.77
2023-01-03T01:51:46.846Z,2.86
2023-01-03T01:54:13.215Z,2.87
2023-01-03T01:56:39.557Z,2.94
2023-01-03T01:59:05.914Z,2.70
2023-01-03T02:01:32.356Z,2.57
2023-01-03T02:03:58.585Z,2.51
2023-01-03T02:06:24.974Z,2.62
2023-01-03T02:08:51.338Z,2.52
2023-01-03T02:11:17.670Z,2.48
2023-01-03T02:13:44.029Z,2.34
2023-01-03T02:16:10.438Z,2.14
2023-01-03T02:18:36.756Z,1.97
2023-01-03T02:21:03.151Z,2.01
2023-01-03T02:23:29.503Z,1.96
2023-01-03T02:25:55.881Z,1.91
2023-01-03T02:28:22.271Z,1.81
2023-01-03T02:30:48.643Z,1.85
2023-01-03T02:33:14.932Z,2.06
2023-01-03T02:35:41.350Z,1.95
2023-01-03T02:38:07.822Z,1.96
2023-01-03T02:40:34.213Z,2.17
2023-01-03T02:43:00.530Z,2.14
2023-01-03T02:45:26.893Z,2.34
2023-01-03T02:47:53.257Z,2.18
2023-01-03T02:50:19.650Z,2.44
2023-01-03T02:52:46.023Z,2.28
2023-01-03T02:55:12.373Z,2.05
2023-01-03T02:57:38.702Z,1.86
2023-01-03T03:00:05.058Z,1.92
2023-01-03T03:02:31.588Z,2.29
2023-01-03T03:04:57.800Z,2.34
2023-01-03T03:07:24.125Z,2.47
2023-01-03T03:09:50.476Z,2.60
2023-01-03T03:12:16.838Z,2.37
2023-01-03T03:14:43.219Z,2.18
2023-01-03T03:17:09.600Z,2.11
2023-01-03T03:19:35.994Z,2.04
2023-01-03T03:22:02.304Z,1.95
2023-01-03T03:24:28.651Z,2.24
2023-01-03T03:26:54.977Z,2.06
2023-01-03T03:29:21.365Z,1.81
2023-01-03T03:31:47.769Z,1.74
2023-01-03T03:34:14.064Z,1.70
2023-01-03T03:36:40.386Z,2.03
2023-01-03T03:39:06.744Z,2.02
2023-01-03T03:41:33.109Z,1.97
2023-01-03T03:43:59.499Z,1.95
2023-01-03T03:46:25.834Z,1.96
2023-01-03T03:48:52.187Z,1.78
2023-01-03T03:51:18.505Z,1.86
2023-01-03T03:53:44.898Z,1.85
2023-01-03T03:56:11.219Z,1.77
2023-01-03T03:58:37.597Z,1.66
2023-01-03T04:01:03.915Z,1.51
2023-01-03T04:03:30.402Z,1.36
2023-01-03T04:05:56.668Z,1.32
2023-01-03T04:08:23.018Z,1.44
2023-01-03T04:10:49.396Z,1.42
2023-01-03T04:13:15.781Z,1.31
2023-01-03T04:15:42.164Z,1.37
2023-01-03T04:18:08.542Z,1.36
2023-01-03T04:20:34.856Z,1.28
2023-01-03T04:23:01.279Z,1.21
2023-01-03T04:25:27.568Z,1.17
2023-01-03T04:27:53.958Z,1.01
2023-01-03T04:30:20.317Z,0.92
2023-01-03T04:32:46.687Z,0.84
2023-01-03T04:35:13.004Z,0.92
2023-01-03T04:37:39.395Z,0.82
2023-01-03T04:40:05.707Z,0.67
2023-01-03T04:42:32.124Z,0.80
2023-01-03T04:44:58.417Z,0.78
2023-01-03T04:47:24.877Z,0.83
2023-01-03T04:49:51.200Z,0.78
2023-01-03T04:52:17.559Z,0.64
2023-01-03T04:54:43.874Z,0.55
2023-01-03T04:57:10.216Z,0.67
2023-01-03T04:59:36.596Z,0.71
2023-01-03T05:02:03.089Z,0.60
2023-01-03T05:04:29.338Z,0.50
2023-01-03T05:06:55.658Z,0.55
2023-01-03T05:09:22.018Z,1.00
2023-01-03T05:11:48.316Z,1.05
2023-01-03T05:14:14.963Z,1.36
2023-01-03T05:16:41.063Z,1.01
2023-01-03T05:19:07.367Z,0.72
2023-01-03T05:21:33.725Z,0.66
2023-01-03T05:24:00.152Z,0.52
2023-01-03T05:26:26.416Z,0.47
2023-01-03T05:28:52.772Z,0.42
2023-01-03T05:31:19.220Z,0.44
2023-01-03T05:33:45.487Z,0.40
2023-01-03T05:36:11.796Z,0.33
2023-01-03T05:38:38.165Z,0.30
2023-01-03T05:41:04.547Z,0.27
2023-01-03T05:43:30.924Z,0.45
2023-01-03T05:45:57.311Z,0.49
2023-01-03T05:48:23.598Z,0.64
2023-01-03T05:50:49.951Z,0.63
2023-01-03T05:53:16.291Z,0.53
2023-01-03T05:55:42.644Z,0.64
2023-01-03T05:58:08.963Z,0.55
2023-01-03T06:00:35.366Z,0.44
2023-01-03T06:03:01.820Z,0.47
2023-01-03T06:05:28.075Z,0.54
2023-01-03T06:07:54.456Z,0.45
2023-01-03T06:10:20.777Z,0.40
2023-01-03T06:12:47.192Z,0.38
2023-01-03T06:15:13.616Z,0.30
2023-01-03T06:17:39.891Z,0.22
2023-01-03T06:20:06.238Z,0.27
2023-01-03T06:22:32.609Z,0.30
2023-01-03T06:24:58.990Z,0.33
2023-01-03T06:27:25.388Z,0.40
2023-01-03T06:29:51.790Z,0.53
2023-01-03T06:32:18.130Z,0.79
2023-01-03T06:34:44.509Z,0.83
2023-01-03T06:37:10.823Z,1.05
2023-01-03T06:39:37.185Z,1.16
2023-01-03T06:42:03.553Z,1.18
2023-01-03T06:44:29.970Z,1.05
2023-01-03T06:46:56.289Z,0.75
2023-01-03T06:49:22.645Z,0.56
2023-01-03T06:51:48.949Z,0.64
2023-01-03T06:54:15.333Z,0.90
2023-01-03T06:56:41.776Z,0.83
2023-01-03T06:59:08.176Z,0.75
2023-01-03T07:01:34.624Z,0.75
2023-01-03T07:04:00.872Z,0.91
2023-01-03T07:06:28.540Z,1.19
2023-01-03T07:08:54.927Z,1.48
2023-01-03T07:11:21.250Z,1.50
2023-01-03T07:13:47.596Z,1.61
2023-01-03T07:16:13.964Z,1.53
2023-01-03T07:18:40.353Z,1.59
2023-01-03T07:21:06.713Z,1.80
2023-01-03T07:23:33.077Z,1.97
2023-01-03T07:25:59.473Z,2.22
2023-01-03T07:28:25.863Z,2.47
2023-01-03T07:30:52.260Z,2.54
2023-01-03T07:33:18.623Z,2.54
2023-01-03T07:35:44.940Z,2.56
2023-01-03T07:38:11.297Z,2.72
2023-01-03T07:40:37.623Z,2.97
2023-01-03T07:43:04.080Z,3.19
2023-01-03T07:45:30.427Z,3.13
2023-01-03T07:47:56.815Z,3.67
2023-01-03T07:50:23.166Z,3.92
2023-01-03T07:52:49.615Z,3.99
2023-01-03T07:55:15.931Z,4.23
2023-01-03T07:57:42.315Z,4.34
2023-01-03T08:00:08.645Z,4.39
2023-01-03T08:02:35.215Z,4.60
2023-01-03T08:05:01.545Z,4.76
2023-01-03T08:07:27.774Z,4.97
2023-01-03T08:09:54.159Z,5.07
2023-01-03T08:12:20.470Z,4.97
2023-01-03T08:14:46.872Z,5.13
2023-01-03T08:17:13.215Z,5.40
2023-01-03T08:19:45.296Z,5.36
2023-01-03T08:22:05.951Z,5.52
2023-01-03T08:24:32.343Z,6.01
2023-01-03T08:26:58.710Z,6.44
2023-01-03T08:29:25.046Z,6.50
2023-01-03T08:31:51.410Z,6.70
2023-01-03T08:34:22.291Z,7.04
2023-01-03T08:36:44.093Z,7.11
2023-01-03T08:39:10.431Z,7.14
2023-01-03T08:41:36.755Z,7.23
2023-01-03T08:44:03.324Z,7.10
2023-01-03T08:46:29.734Z,7.36
2023-01-03T08:48:56.118Z,7.36
2023-01-03T08:51:22.427Z,7.12
2023-01-03T08:53:48.774Z,7.30
2023-01-03T08:56:15.096Z,7.25
2023-01-03T08:58:41.484Z,7.26
2023-01-03T09:01:07.876Z,7.40
2023-01-03T09:03:34.370Z,7.21
2023-01-03T09:06:00.544Z,7.24
2023-01-03T09:08:26.941Z,7.60
2023-01-03T09:10:53.372Z,7.69
2023-01-03T09:13:19.850Z,7.58
2023-01-03T09:15:46.171Z,7.33
2023-01-03T09:18:12.491Z,7.35
2023-01-03T09:20:38.857Z,7.51
2023-01-03T09:23:05.204Z,7.61
2023-01-03T09:25:36.780Z,7.95
2023-01-03T09:27:57.946Z,8.27
2023-01-03T09:30:24.338Z,8.64
2023-01-03T09:32:50.745Z,8.62
2023-01-03T09:35:17.067Z,8.30
2023-01-03T09:37:48.731Z,8.56
2023-01-03T09:40:09.777Z,8.77
2023-01-03T09:42:36.163Z,8.43
2023-01-03T09:45:02.526Z,8.70
2023-01-03T09:47:28.853Z,8.22
2023-01-03T09:50:27.636Z,9.02
2023-01-03T09:52:21.571Z,9.18
2023-01-03T09:54:47.924Z,8.68
2023-01-03T09:57:14.349Z,8.71
2023-01-03T09:59:40.665Z,9.15
2023-01-03T10:02:07.258Z,9.93
2023-01-03T10:04:33.428Z,10.09
2023-01-03T10:06:59.813Z,10.32
2023-01-03T10:09:26.147Z,10.62
2023-01-03T10:11:52.474Z,10.73
2023-01-03T10:14:18.819Z,10.75
2023-01-03T10:16:45.219Z,10.37
2023-01-03T10:19:11.518Z,10.28
2023-01-03T10:21:37.912Z,10.01
2023-01-03T10:24:04.230Z,9.93
2023-01-03T10:26:32.973Z,10.04
2023-01-03T10:28:56.977Z,9.90
2023-01-03T10:31:23.383Z,10.19
2023-01-03T10:33:49.673Z,10.79
2023-01-03T10:36:16.072Z,11.22
2023-01-03T10:38:47.864Z,11.00
2023-01-03T10:41:08.780Z,11.58
2023-01-03T10:43:35.145Z,11.70
2023-01-03T10:46:01.550Z,11.75
2023-01-03T10:48:27.885Z,12.08
2023-01-03T10:50:54.228Z,11.55
2023-01-03T10:53:20.589Z,11.87
2023-01-03T10:55:46.968Z,12.08
2023-01-03T10:58:13.295Z,12.47
2023-01-03T11:00:39.681Z,12.82
2023-01-03T11:03:06.200Z,12.70
2023-01-03T11:05:32.423Z,12.26
2023-01-03T11:07:58.736Z,12.36
2023-01-03T11:10:25.116Z,12.87
2023-01-03T11:12:51.426Z,13.26
2023-01-03T11:15:17.826Z,13.06
2023-01-03T11:17:44.134Z,12.89
2023-01-03T11:20:10.554Z,13.04
2023-01-03T11:22:38.209Z,12.89
2023-01-03T11:25:03.292Z,13.44
2023-01-03T11:27:29.599Z,13.52
2023-01-03T11:29:55.988Z,13.38
2023-01-03T11:32:22.367Z,13.54
2023-01-03T11:35:21.562Z,13.49
2023-01-03T11:37:15.024Z,13.86
2023-01-03T11:39:41.404Z,14.34
2023-01-03T11:42:07.734Z,14.60
2023-01-03T11:44:34.067Z,14.74
2023-01-03T11:47:00.433Z,14.70
2023-01-03T11:49:26.794Z,14.40
2023-01-03T11:51:53.127Z,14.54
2023-01-03T11:54:19.496Z,14.51
2023-01-03T11:56:45.865Z,14.65
2023-01-03T11:59:12.270Z,14.67
2023-01-03T12:01:39.779Z,14.72
2023-01-03T12:04:04.983Z,14.26
2023-01-03T12:06:31.273Z,14.51
2023-01-03T12:08:57.636Z,14.52
2023-01-03T12:11:23.999Z,14.18
2023-01-03T12:13:50.338Z,14.33
2023-01-03T12:16:16.768Z,14.66
2023-01-03T12:18:43.050Z,15.26
2023-01-03T12:21:09.418Z,15.50
2023-01-03T12:23:35.746Z,15.31
2023-01-03T12:26:03.215Z,15.61
2023-01-03T12:28:29.555Z,15.26
2023-01-03T12:30:55.927Z,14.89
2023-01-03T12:33:22.237Z,14.94
2023-01-03T12:35:48.573Z,15.02
2023-01-03T12:38:14.981Z,15.20
2023-01-03T12:40:41.308Z,15.38
2023-01-03T12:43:07.683Z,15.61
2023-01-03T12:45:34.830Z,16.00
2023-01-03T12:48:00.374Z,16.01
2023-01-03T12:50:26.691Z,16.02
2023-01-03T12:52:53.040Z,16.25
2023-01-03T12:55:19.425Z,16.36
2023-01-03T12:57:45.785Z,16.61
2023-01-03T13:00:12.148Z,16.62
2023-01-03T13:02:38.645Z,16.98
2023-01-03T13:05:04.895Z,16.88
2023-01-03T13:07:31.282Z,16.98
2023-01-03T13:10:01.145Z,16.96
2023-01-03T13:12:23.976Z,16.90
2023-01-03T13:14:50.312Z,17.13
2023-01-03T13:17:16.687Z,16.94
2023-01-03T13:19:43.018Z,16.91
2023-01-03T13:22:09.364Z,17.02
2023-01-03T13:24:35.679Z,17.12
2023-01-03T13:27:02.074Z,17.27
2023-01-03T13:29:28.465Z,17.37
2023-01-03T13:31:54.861Z,17.25
2023-01-03T13:34:21.175Z,17.29
2023-01-03T13:36:47.610Z,17.46
2023-01-03T13:39:13.949Z,17.42
2023-01-03T13:41:40.310Z,17.29
2023-01-03T13:44:06.643Z,17.28
2023-01-03T13:46:33.122Z,17.17
2023-01-03T13:48:59.400Z,16.97
2023-01-03T13:51:25.737Z,16.77
2023-01-03T13:53:52.114Z,16.66
2023-01-03T13:56:18.490Z,16.58
2023-01-03T13:58:44.816Z,16.38
2023-01-03T14:01:11.240Z,16.11
2023-01-03T14:03:37.662Z,15.84
2023-01-03T14:06:03.943Z,15.64
2023-01-03T14:08:35.230Z,15.49
2023-01-03T14:10:56.714Z,15.36
2023-01-03T14:13:23.005Z,15.39
2023-01-03T14:15:49.498Z,15.17
2023-01-03T14:18:15.747Z,15.09
2023-01-03T14:20:42.160Z,14.99
2023-01-03T14:23:31.919Z,14.91
2023-01-03T14:25:34.868Z,14.75
2023-01-03T14:28:01.227Z,14.69
2023-01-03T14:30:27.594Z,14.56
2023-01-03T14:32:53.935Z,14.53
2023-01-03T14:35:20.286Z,14.52
2023-01-03T14:37:46.651Z,14.36
2023-01-03T14:40:13.023Z,14.25
2023-01-03T14:42:39.355Z,14.10
2023-01-03T14:45:05.720Z,13.93
2023-01-03T14:47:32.031Z,13.87
2023-01-03T14:49:58.411Z,13.86
2023-01-03T14:52:24.773Z,13.88
2023-01-03T14:54:51.167Z,13.87
2023-01-03T14:57:17.512Z,13.82
2023-01-03T14:59:43.900Z,13.65
2023-01-03T15:02:10.493Z,13.45
2023-01-03T15:04:36.646Z,13.31
2023-01-03T15:07:11.057Z,13.20
2023-01-03T15:09:29.323Z,13.06
2023-01-03T15:11:55.706Z,13.01
2023-01-03T15:14:22.045Z,13.02
2023-01-03T15:16:48.424Z,12.95
2023-01-03T15:19:14.810Z,12.93
2023-01-03T15:21:41.084Z,12.93
2023-01-03T15:24:07.454Z,12.82
2023-01-03T15:26:33.817Z,12.75
2023-01-03T15:29:00.226Z,12.79
2023-01-03T15:31:26.614Z,12.83
2023-01-03T15:33:52.975Z,12.84
2023-01-03T15:36:19.650Z,12.84
2023-01-03T15:38:45.662Z,12.79
2023-01-03T15:41:12.021Z,12.76
2023-01-03T15:43:38.383Z,12.72
2023-01-03T15:46:04.803Z,12.63
2023-01-03T15:48:31.064Z,12.60
2023-01-03T15:50:57.471Z,12.56
2023-01-03T15:53:23.856Z,12.57
2023-01-03T15:55:50.174Z,12.54
2023-01-03T15:58:16.533Z,12.49
2023-01-03T16:00:42.923Z,12.52
2023-01-03T16:03:09.272Z,12.49
2023-01-03T16:05:35.595Z,12.46
2023-01-03T16:08:01.943Z,12.37
2023-01-03T16:10:28.305Z,12.32
2023-01-03T16:12:54.655Z,12.29
2023-01-03T16:15:21.045Z,12.26
2023-01-03T16:17:47.413Z,12.25
2023-01-03T16:20:13.773Z,12.30
2023-01-03T16:22:48.608Z,12.32
2023-01-03T16:25:06.465Z,12.24
2023-01-03T16:27:32.859Z,12.25
2023-01-03T16:29:59.420Z,12.16
2023-01-03T16:32:25.605Z,12.13
2023-01-03T16:34:51.857Z,12.05
2023-01-03T16:37:18.233Z,12.03
2023-01-03T16:39:48.307Z,12.07
2023-01-03T16:42:10.935Z,12.09
2023-01-03T16:44:37.284Z,12.05
2023-01-03T16:47:03.658Z,12.01
2023-01-03T16:49:30.022Z,11.95
2023-01-03T16:51:57.915Z,11.88
2023-01-03T16:54:22.758Z,11.89
2023-01-03T16:56:49.131Z,11.92
2023-01-03T16:59:15.447Z,11.86
2023-01-03T17:01:41.926Z,11.81
2023-01-03T17:04:08.271Z,11.72
2023-01-03T17:06:38.366Z,11.66
2023-01-03T17:09:00.919Z,11.62
2023-01-03T17:11:27.261Z,11.64
2023-01-03T17:13:53.706Z,11.57
2023-01-03T17:16:20.106Z,11.52
2023-01-03T17:18:46.367Z,11.55
2023-01-03T17:21:12.718Z,11.52
2023-01-03T17:23:39.048Z,11.56
2023-01-03T17:26:05.451Z,11.59
2023-01-03T17:28:31.797Z,11.61
2023-01-03T17:30:58.260Z,11.58
2023-01-03T17:33:28.634Z,11.54
2023-01-03T17:35:50.911Z,11.53
2023-01-03T17:38:26.145Z,11.56
2023-01-03T17:40:43.685Z,11.49
2023-01-03T17:43:10.013Z,11.49
2023-01-03T17:45:36.401Z,11.50
2023-01-03T17:48:02.747Z,11.51
2023-01-03T17:50:29.109Z,11.45
2023-01-03T17:52:56.469Z,11.42
2023-01-03T17:55:21.831Z,11.34
2023-01-03T17:57:48.155Z,11.24
2023-01-03T18:00:14.560Z,11.18
2023-01-03T18:02:41.164Z,11.13
2023-01-03T18:05:19.942Z,11.14
2023-01-03T18:07:33.659Z,11.08
2023-01-03T18:10:00.077Z,10.99
2023-01-03T18:12:26.435Z,11.00
2023-01-03T18:14:52.811Z,10.99
2023-01-03T18:17:19.174Z,11.01
2023-01-03T18:19:45.564Z,11.03
2023-01-03T18:22:11.899Z,11.07
2023-01-03T18:24:38.251Z,11.10
2023-01-03T18:27:04.614Z,11.07
2023-01-03T18:29:30.927Z,11.01
2023-01-03T18:31:57.346Z,10.99
2023-01-03T18:34:23.844Z,10.93
2023-01-03T18:36:50.206Z,10.85
2023-01-03T18:39:16.575Z,10.76
2023-01-03T18:41:42.937Z,10.73
2023-01-03T18:44:09.354Z,10.67
2023-01-03T18:46:35.773Z,10.62
2023-01-03T18:49:02.035Z,10.60
2023-01-03T18:51:28.428Z,10.61
2023-01-03T18:53:54.774Z,10.57
2023-01-03T18:56:21.162Z,10.51
2023-01-03T18:58:47.488Z,10.43
2023-01-03T19:01:13.979Z,10.36
2023-01-03T19:03:40.399Z,10.34
2023-01-03T19:06:06.640Z,10.35
2023-01-03T19:08:33.046Z,10.30
2023-01-03T19:10:59.411Z,10.35
2023-01-03T19:13:25.735Z,10.44
2023-01-03T19:15:52.143Z,10.54
2023-01-03T19:18:18.461Z,10.62
2023-01-03T19:20:44.867Z,10.61
2023-01-03T19:23:11.234Z,10.66
2023-01-03T19:25:37.607Z,10.74
2023-01-03T19:28:03.979Z,10.81
2023-01-03T19:30:36.977Z,10.79
2023-01-03T19:32:56.692Z,10.78
2023-01-03T19:35:23.063Z,10.76
2023-01-03T19:37:49.424Z,10.71
2023-01-03T19:40:15.766Z,10.67
2023-01-03T19:42:42.135Z,10.63
2023-01-03T19:45:08.517Z,10.66
2023-01-03T19:47:34.902Z,10.66
2023-01-03T19:50:06.232Z,10.66
2023-01-03T19:52:27.649Z,10.65
2023-01-03T19:54:54.032Z,10.62
2023-01-03T19:57:20.365Z,10.54
2023-01-03T19:59:46.747Z,10.50
2023-01-03T20:02:28.618Z,10.45
2023-01-03T20:04:39.591Z,10.40
2023-01-03T20:07:05.852Z,10.34
2023-01-03T20:09:32.376Z,10.28
2023-01-03T20:11:58.692Z,10.21
2023-01-03T20:14:25.110Z,10.15
2023-01-03T20:16:51.481Z,10.18
2023-01-03T20:19:17.863Z,10.10
2023-01-03T20:21:44.217Z,9.97
2023-01-03T20:24:10.543Z,9.96
2023-01-03T20:26:36.869Z,9.91
2023-01-03T20:29:03.215Z,9.84
2023-01-03T20:31:29.685Z,9.83
2023-01-03T20:33:56.058Z,9.77
2023-01-03T20:36:23.721Z,9.59
2023-01-03T20:38:48.769Z,9.29
2023-01-03T20:41:15.125Z,8.87
2023-01-03T20:43:41.512Z,8.58
2023-01-03T20:46:07.883Z,8.31
2023-01-03T20:48:34.227Z,7.72
2023-01-03T20:51:00.611Z,7.38
2023-01-03T20:53:27.021Z,7.02
2023-01-03T20:55:53.359Z,6.84
2023-01-03T20:58:19.676Z,6.69
2023-01-03T21:00:46.198Z,6.63
2023-01-03T21:03:12.650Z,6.73
2023-01-03T21:05:38.850Z,6.71
2023-01-03T21:08:05.260Z,6.63
2023-01-03T21:10:31.537Z,6.67
2023-01-03T21:12:57.936Z,6.61
2023-01-03T21:15:24.296Z,6.50
2023-01-03T21:17:51.308Z,6.47
2023-01-03T21:20:17.054Z,6.58
2023-01-03T21:22:43.389Z,6.59
2023-01-03T21:25:09.779Z,6.54
2023-01-03T21:27:36.115Z,6.47
2023-01-03T21:30:02.476Z,6.40
2023-01-03T21:32:28.808Z,6.38
2023-01-03T21:34:55.156Z,6.37
2023-01-03T21:37:21.495Z,6.37
2023-01-03T21:39:47.818Z,6.39
2023-01-03T21:42:14.203Z,6.37
2023-01-03T21:44:40.594Z,6.39
2023-01-03T21:47:06.986Z,6.36
2023-01-03T21:49:33.300Z,6.30
2023-01-03T21:51:59.644Z,6.32
2023-01-03T21:54:25.971Z,6.33
2023-01-03T21:56:52.363Z,6.35
2023-01-03T21:59:18.738Z,6.30
2023-01-03T22:01:45.194Z,6.33
2023-01-03T22:04:11.482Z,6.16
2023-01-03T22:06:37.789Z,6.12
2023-01-03T22:09:04.117Z,6.10
2023-01-03T22:11:30.491Z,6.03
2023-01-03T22:13:56.863Z,6.01
2023-01-03T22:16:23.361Z,6.01
2023-01-03T22:18:49.584Z,5.93
2023-01-03T22:21:15.966Z,5.89
2023-01-03T22:23:42.292Z,5.85
2023-01-03T22:26:08.651Z,5.82
2023-01-03T22:28:35.059Z,5.82
2023-01-03T22:31:01.415Z,5.79
2023-01-03T22:33:27.747Z,5.78
2023-01-03T22:35:54.190Z,5.69
2023-01-03T22:38:20.503Z,5.70
2023-01-03T22:40:46.846Z,5.59
2023-01-03T22:43:13.211Z,5.52
2023-01-03T22:45:39.650Z,5.43
2023-01-03T22:48:05.995Z,5.40
2023-01-03T22:50:32.363Z,5.35
2023-01-03T22:52:58.685Z,5.31
2023-01-03T22:55:28.352Z,5.17
2023-01-03T22:57:51.415Z,5.15
2023-01-03T23:00:17.757Z,5.24
2023-01-03T23:02:44.137Z,5.29
2023-01-03T23:05:10.435Z,5.29
2023-01-03T23:07:36.761Z,5.21
2023-01-03T23:10:03.151Z,5.11
2023-01-03T23:12:29.470Z,5.14
2023-01-03T23:14:55.856Z,4.97
2023-01-03T23:17:22.248Z,4.85
2023-01-03T23:19:48.590Z,4.80
2023-01-03T23:22:14.907Z,4.87
2023-01-03T23:24:41.333Z,4.94
2023-01-03T23:27:07.667Z,4.91
2023-01-03T23:29:34.060Z,4.82
2023-01-03T23:32:00.444Z,5.00
2023-01-03T23:34:26.838Z,5.17
2023-01-03T23:36:53.122Z,5.30
2023-01-03T23:39:19.460Z,5.36
2023-01-03T23:41:45.932Z,5.41
2023-01-03T23:44:12.275Z,5.45
2023-01-03T23:46:38.641Z,5.61
2023-01-03T23:49:04.985Z,5.74
2023-01-03T23:51:31.301Z,5.94
2023-01-03T23:53:57.681Z,5.84
2023-01-03T23:56:23.997Z,5.75
2023-01-03T23:58:50.397Z,5.49
